sensor_id;sensor_type;location;lat;lon;timestamp;P1;durP1;ratioP1;P2;durP2;ratioP2
27436;SDS011;14886;51.586;6.722;2023-09-19T00:00:28;6.7;;;1.6;;
27436;SDS011;14886;51.586;6.722;2023-09-19T00:05:29;5.6;;;1.5;;
27436;SDS011;14886;51.586;6.722;2023-09-19T00:10:31;6.0;;;1.5;;
27436;SDS011;14886;51.586;6.722;2023-09-19T00:15:35;7.3;;;1.8;;
27436;SDS011;14886;51.586;6.722;2023-09-19T00:20:35;6.8;;;1.6;;
27436;SDS011;14886;51.586;6.722;2023-09-19T00:25:34;12.0;;;1.9;;
27436;SDS011;14886;51.586;6.722;2023-09-19T00:30:35;10.6;;;2.1;;
27436;SDS011;14886;51.586;6.722;2023-09-19T00:35:37;10.2;;;1.7;;
27436;SDS011;14886;51.586;6.722;2023-09-19T00:40:38;9.1;;;1.6;;
27436;SDS011;14886;51.586;6.722;2023-09-19T00:45:39;9.5;;;1.7;;
27436;SDS011;14886;51.586;6.722;2023-09-19T00:50:41;12.0;;;2.5;;
27436;SDS011;14886;51.586;6.722;2023-09-19T00:55:41;9.0;;;2.1;;
27436;SDS011;14886;51.586;6.722;2023-09-19T01:00:43;7.2;;;1.8;;
27436;SDS011;14886;51.586;6.722;2023-09-19T01:10:46;6.1;;;1.5;;
27436;SDS011;14886;51.586;6.722;2023-09-19T01:15:48;5.6;;;1.7;;
27436;SDS011;14886;51.586;6.722;2023-09-19T01:20:52;6.2;;;2.0;;
27436;SDS011;14886;51.586;6.722;2023-09-19T01:25:50;7.3;;;1.8;;
27436;SDS011;14886;51.586;6.722;2023-09-19T01:30:51;6.5;;;1.4;;
27436;SDS011;14886;51.586;6.722;2023-09-19T01:35:51;7.4;;;1.9;;
27436;SDS011;14886;51.586;6.722;2023-09-19T01:40:57;12.7;;;1.9;;
27436;SDS011;14886;51.586;6.722;2023-09-19T01:45:56;7.1;;;1.7;;
27436;SDS011;14886;51.586;6.722;2023-09-19T01:50:56;7.0;;;1.6;;
27436;SDS011;14886;51.586;6.722;2023-09-19T01:55:56;12.1;;;1.8;;
27436;SDS011;14886;51.586;6.722;2023-09-19T02:00:57;8.9;;;2.3;;
27436;SDS011;14886;51.586;6.722;2023-09-19T02:05:59;8.8;;;1.9;;
27436;SDS011;14886;51.586;6.722;2023-09-19T02:11:00;12.6;;;2.2;;
27436;SDS011;14886;51.586;6.722;2023-09-19T02:16:01;7.3;;;1.8;;
27436;SDS011;14886;51.586;6.722;2023-09-19T02:21:02;6.7;;;1.5;;
27436;SDS011;14886;51.586;6.722;2023-09-19T02:26:03;9.0;;;1.8;;
27436;SDS011;14886;51.586;6.722;2023-09-19T02:31:05;9.8;;;2.0;;
27436;SDS011;14886;51.586;6.722;2023-09-19T02:36:06;11.1;;;2.7;;
27436;SDS011;14886;51.586;6.722;2023-09-19T02:41:07;7.9;;;1.9;;
27436;SDS011;14886;51.586;6.722;2023-09-19T02:46:08;8.0;;;1.9;;
27436;SDS011;14886;51.586;6.722;2023-09-19T02:51:10;7.1;;;2.1;;
27436;SDS011;14886;51.586;6.722;2023-09-19T02:56:11;7.2;;;1.7;;
27436;SDS011;14886;51.586;6.722;2023-09-19T03:01:12;5.6;;;1.8;;
27436;SDS011;14886;51.586;6.722;2023-09-19T03:06:13;8.7;;;2.8;;
27436;SDS011;14886;51.586;6.722;2023-09-19T03:11:15;9.3;;;1.7;;
27436;SDS011;14886;51.586;6.722;2023-09-19T03:16:16;5.4;;;1.8;;
27436;SDS011;14886;51.586;6.722;2023-09-19T03:21:17;7.1;;;2.1;;
27436;SDS011;14886;51.586;6.722;2023-09-19T03:26:18;8.0;;;2.2;;
27436;SDS011;14886;51.586;6.722;2023-09-19T03:31:20;8.5;;;2.4;;
27436;SDS011;14886;51.586;6.722;2023-09-19T03:36:21;7.9;;;1.7;;
27436;SDS011;14886;51.586;6.722;2023-09-19T03:41:22;8.1;;;2.1;;
27436;SDS011;14886;51.586;6.722;2023-09-19T03:46:23;5.6;;;1.7;;
27436;SDS011;14886;51.586;6.722;2023-09-19T03:51:25;6.5;;;1.9;;
27436;SDS011;14886;51.586;6.722;2023-09-19T03:56:26;9.2;;;1.7;;
27436;SDS011;14886;51.586;6.722;2023-09-19T04:01:27;4.8;;;1.4;;
27436;SDS011;14886;51.586;6.722;2023-09-19T04:06:28;12.0;;;2.0;;
27436;SDS011;14886;51.586;6.722;2023-09-19T04:11:30;6.9;;;1.6;;
27436;SDS011;14886;51.586;6.722;2023-09-19T04:16:31;5.8;;;1.5;;
27436;SDS011;14886;51.586;6.722;2023-09-19T04:21:32;9.3;;;2.0;;
27436;SDS011;14886;51.586;6.722;2023-09-19T04:26:33;9.4;;;1.8;;
27436;SDS011;14886;51.586;6.722;2023-09-19T04:31:35;7.4;;;1.5;;
27436;SDS011;14886;51.586;6.722;2023-09-19T04:36:36;5.8;;;1.8;;
27436;SDS011;14886;51.586;6.722;2023-09-19T04:41:37;11.3;;;2.4;;
27436;SDS011;14886;51.586;6.722;2023-09-19T04:46:38;11.7;;;2.3;;
27436;SDS011;14886;51.586;6.722;2023-09-19T04:51:39;7.5;;;2.0;;
27436;SDS011;14886;51.586;6.722;2023-09-19T04:56:41;6.0;;;1.5;;
27436;SDS011;14886;51.586;6.722;2023-09-19T05:01:42;5.0;;;2.0;;
27436;SDS011;14886;51.586;6.722;2023-09-19T05:06:43;9.4;;;2.1;;
27436;SDS011;14886;51.586;6.722;2023-09-19T05:11:45;8.1;;;1.5;;
27436;SDS011;14886;51.586;6.722;2023-09-19T05:16:46;6.8;;;1.6;;
27436;SDS011;14886;51.586;6.722;2023-09-19T05:21:47;7.9;;;1.9;;
27436;SDS011;14886;51.586;6.722;2023-09-19T05:26:48;9.9;;;2.1;;
27436;SDS011;14886;51.586;6.722;2023-09-19T05:31:50;7.3;;;1.9;;
27436;SDS011;14886;51.586;6.722;2023-09-19T05:36:51;7.7;;;1.9;;
27436;SDS011;14886;51.586;6.722;2023-09-19T05:41:52;7.1;;;1.6;;
27436;SDS011;14886;51.586;6.722;2023-09-19T05:46:53;10.3;;;2.1;;
27436;SDS011;14886;51.586;6.722;2023-09-19T05:51:55;9.9;;;1.8;;
27436;SDS011;14886;51.586;6.722;2023-09-19T05:56:58;6.2;;;1.9;;
27436;SDS011;14886;51.586;6.722;2023-09-19T06:01:57;8.2;;;1.7;;
27436;SDS011;14886;51.586;6.722;2023-09-19T06:06:58;6.5;;;1.7;;
27436;SDS011;14886;51.586;6.722;2023-09-19T06:12:00;9.3;;;1.8;;
27436;SDS011;14886;51.586;6.722;2023-09-19T06:17:01;8.9;;;2.1;;
27436;SDS011;14886;51.586;6.722;2023-09-19T06:22:02;7.5;;;1.8;;
27436;SDS011;14886;51.586;6.722;2023-09-19T06:27:04;6.9;;;1.8;;
27436;SDS011;14886;51.586;6.722;2023-09-19T06:32:06;9.2;;;2.0;;
27436;SDS011;14886;51.586;6.722;2023-09-19T06:37:06;7.4;;;1.6;;
27436;SDS011;14886;51.586;6.722;2023-09-19T06:42:07;7.7;;;2.4;;
27436;SDS011;14886;51.586;6.722;2023-09-19T06:47:08;6.6;;;1.8;;
27436;SDS011;14886;51.586;6.722;2023-09-19T06:52:10;7.5;;;2.0;;
27436;SDS011;14886;51.586;6.722;2023-09-19T06:57:11;9.6;;;2.2;;
27436;SDS011;14886;51.586;6.722;2023-09-19T07:02:12;9.2;;;2.4;;
27436;SDS011;14886;51.586;6.722;2023-09-19T07:07:13;5.8;;;1.4;;
27436;SDS011;14886;51.586;6.722;2023-09-19T07:12:14;7.5;;;2.9;;
27436;SDS011;14886;51.586;6.722;2023-09-19T07:17:16;8.1;;;2.1;;
27436;SDS011;14886;51.586;6.722;2023-09-19T07:22:17;9.3;;;2.0;;
27436;SDS011;14886;51.586;6.722;2023-09-19T07:27:18;7.0;;;2.0;;
27436;SDS011;14886;51.586;6.722;2023-09-19T07:32:19;8.5;;;1.9;;
27436;SDS011;14886;51.586;6.722;2023-09-19T07:37:20;9.6;;;2.1;;
27436;SDS011;14886;51.586;6.722;2023-09-19T07:42:22;9.3;;;2.1;;
27436;SDS011;14886;51.586;6.722;2023-09-19T07:47:23;9.5;;;1.8;;
27436;SDS011;14886;51.586;6.722;2023-09-19T07:52:24;9.4;;;2.0;;
27436;SDS011;14886;51.586;6.722;2023-09-19T07:57:25;8.2;;;2.1;;
27436;SDS011;14886;51.586;6.722;2023-09-19T08:02:27;10.6;;;2.0;;
27436;SDS011;14886;51.586;6.722;2023-09-19T08:07:28;6.8;;;1.6;;
27436;SDS011;14886;51.586;6.722;2023-09-19T08:12:29;8.3;;;1.6;;
27436;SDS011;14886;51.586;6.722;2023-09-19T08:17:33;7.5;;;1.8;;
27436;SDS011;14886;51.586;6.722;2023-09-19T08:22:32;10.2;;;1.8;;
27436;SDS011;14886;51.586;6.722;2023-09-19T08:27:33;11.2;;;2.9;;
27436;SDS011;14886;51.586;6.722;2023-09-19T08:32:34;8.7;;;2.5;;
27436;SDS011;14886;51.586;6.722;2023-09-19T08:37:35;11.3;;;1.9;;
27436;SDS011;14886;51.586;6.722;2023-09-19T08:47:39;7.6;;;1.8;;
27436;SDS011;14886;51.586;6.722;2023-09-19T08:52:41;9.3;;;2.5;;
27436;SDS011;14886;51.586;6.722;2023-09-19T08:57:40;7.8;;;1.9;;
27436;SDS011;14886;51.586;6.722;2023-09-19T09:02:42;8.4;;;1.8;;
27436;SDS011;14886;51.586;6.722;2023-09-19T09:07:43;8.3;;;1.9;;
27436;SDS011;14886;51.586;6.722;2023-09-19T09:12:44;9.7;;;2.2;;
27436;SDS011;14886;51.586;6.722;2023-09-19T09:17:46;8.6;;;2.0;;
27436;SDS011;14886;51.586;6.722;2023-09-19T09:22:50;10.8;;;2.6;;
27436;SDS011;14886;51.586;6.722;2023-09-19T09:27:48;7.5;;;2.0;;
27436;SDS011;14886;51.586;6.722;2023-09-19T09:32:49;8.6;;;2.3;;
27436;SDS011;14886;51.586;6.722;2023-09-19T09:37:58;6.3;;;2.0;;
27436;SDS011;14886;51.586;6.722;2023-09-19T09:42:52;10.0;;;2.5;;
27436;SDS011;14886;51.586;6.722;2023-09-19T09:47:53;8.8;;;1.8;;
27436;SDS011;14886;51.586;6.722;2023-09-19T09:52:55;5.7;;;1.9;;
27436;SDS011;14886;51.586;6.722;2023-09-19T10:02:57;7.3;;;2.0;;
27436;SDS011;14886;51.586;6.722;2023-09-19T10:07:58;7.6;;;2.1;;
27436;SDS011;14886;51.586;6.722;2023-09-19T10:12:59;7.4;;;1.6;;
27436;SDS011;14886;51.586;6.722;2023-09-19T10:18:01;6.7;;;1.7;;
27436;SDS011;14886;51.586;6.722;2023-09-19T10:23:04;7.7;;;1.9;;
27436;SDS011;14886;51.586;6.722;2023-09-19T10:28:03;6.1;;;1.9;;
27436;SDS011;14886;51.586;6.722;2023-09-19T10:33:04;6.5;;;2.2;;
27436;SDS011;14886;51.586;6.722;2023-09-19T10:38:06;9.0;;;2.4;;
27436;SDS011;14886;51.586;6.722;2023-09-19T10:43:07;5.4;;;1.5;;
27436;SDS011;14886;51.586;6.722;2023-09-19T10:48:08;8.8;;;2.0;;
27436;SDS011;14886;51.586;6.722;2023-09-19T10:53:09;7.1;;;2.3;;
27436;SDS011;14886;51.586;6.722;2023-09-19T10:58:11;7.6;;;2.2;;
27436;SDS011;14886;51.586;6.722;2023-09-19T11:03:19;7.4;;;1.9;;
27436;SDS011;14886;51.586;6.722;2023-09-19T11:08:13;8.1;;;1.7;;
27436;SDS011;14886;51.586;6.722;2023-09-19T11:23:17;13.1;;;2.5;;
27436;SDS011;14886;51.586;6.722;2023-09-19T11:33:20;6.4;;;1.6;;
27436;SDS011;14886;51.586;6.722;2023-09-19T11:38:25;5.6;;;1.6;;
27436;SDS011;14886;51.586;6.722;2023-09-19T11:43:30;7.5;;;1.9;;
27436;SDS011;14886;51.586;6.722;2023-09-19T11:48:23;10.0;;;2.1;;
27436;SDS011;14886;51.586;6.722;2023-09-19T11:53:24;7.4;;;2.3;;
27436;SDS011;14886;51.586;6.722;2023-09-19T11:58:26;6.1;;;1.4;;
27436;SDS011;14886;51.586;6.722;2023-09-19T12:03:28;6.5;;;2.1;;
27436;SDS011;14886;51.586;6.722;2023-09-19T12:08:28;7.4;;;1.7;;
27436;SDS011;14886;51.586;6.722;2023-09-19T12:13:29;5.9;;;1.8;;
27436;SDS011;14886;51.586;6.722;2023-09-19T12:18:31;6.4;;;1.8;;
27436;SDS011;14886;51.586;6.722;2023-09-19T12:23:32;8.0;;;1.5;;
27436;SDS011;14886;51.586;6.722;2023-09-19T12:28:37;4.6;;;1.5;;
27436;SDS011;14886;51.586;6.722;2023-09-19T12:33:34;8.2;;;1.8;;
27436;SDS011;14886;51.586;6.722;2023-09-19T12:38:36;6.2;;;1.8;;
27436;SDS011;14886;51.586;6.722;2023-09-19T12:43:37;7.3;;;1.4;;
27436;SDS011;14886;51.586;6.722;2023-09-19T12:48:38;4.6;;;1.5;;
27436;SDS011;14886;51.586;6.722;2023-09-19T12:53:40;4.7;;;1.5;;
27436;SDS011;14886;51.586;6.722;2023-09-19T12:58:49;6.5;;;1.6;;
27436;SDS011;14886;51.586;6.722;2023-09-19T13:03:42;4.5;;;1.8;;
27436;SDS011;14886;51.586;6.722;2023-09-19T13:08:43;5.0;;;1.7;;
27436;SDS011;14886;51.586;6.722;2023-09-19T13:13:45;5.5;;;1.4;;
27436;SDS011;14886;51.586;6.722;2023-09-19T13:18:46;5.0;;;1.6;;
27436;SDS011;14886;51.586;6.722;2023-09-19T13:23:47;6.9;;;1.7;;
27436;SDS011;14886;51.586;6.722;2023-09-19T13:28:48;5.5;;;1.6;;
27436;SDS011;14886;51.586;6.722;2023-09-19T13:33:49;3.0;;;1.1;;
27436;SDS011;14886;51.586;6.722;2023-09-19T13:38:50;4.0;;;1.3;;
27436;SDS011;14886;51.586;6.722;2023-09-19T13:43:52;7.5;;;1.5;;
27436;SDS011;14886;51.586;6.722;2023-09-19T13:48:53;3.8;;;1.2;;
27436;SDS011;14886;51.586;6.722;2023-09-19T13:53:54;3.9;;;1.0;;
27436;SDS011;14886;51.586;6.722;2023-09-19T13:58:55;3.7;;;1.1;;
27436;SDS011;14886;51.586;6.722;2023-09-19T14:03:57;4.6;;;1.0;;
27436;SDS011;14886;51.586;6.722;2023-09-19T14:08:58;6.6;;;1.6;;
27436;SDS011;14886;51.586;6.722;2023-09-19T14:13:59;8.3;;;1.2;;
27436;SDS011;14886;51.586;6.722;2023-09-19T14:19:00;4.0;;;1.3;;
27436;SDS011;14886;51.586;6.722;2023-09-19T14:24:02;2.1;;;1.1;;
27436;SDS011;14886;51.586;6.722;2023-09-19T14:29:03;4.6;;;1.2;;
27436;SDS011;14886;51.586;6.722;2023-09-19T14:34:04;2.5;;;1.0;;
27436;SDS011;14886;51.586;6.722;2023-09-19T14:39:05;2.2;;;0.8;;
27436;SDS011;14886;51.586;6.722;2023-09-19T14:44:06;3.4;;;1.0;;
27436;SDS011;14886;51.586;6.722;2023-09-19T14:49:08;3.3;;;1.0;;
27436;SDS011;14886;51.586;6.722;2023-09-19T14:54:09;4.2;;;0.9;;
27436;SDS011;14886;51.586;6.722;2023-09-19T14:59:10;3.8;;;1.0;;
27436;SDS011;14886;51.586;6.722;2023-09-19T15:04:11;3.1;;;0.8;;
27436;SDS011;14886;51.586;6.722;2023-09-19T15:09:13;5.0;;;1.0;;
27436;SDS011;14886;51.586;6.722;2023-09-19T15:14:14;6.2;;;1.4;;
27436;SDS011;14886;51.586;6.722;2023-09-19T15:19:15;3.5;;;0.8;;
27436;SDS011;14886;51.586;6.722;2023-09-19T15:24:16;3.3;;;0.6;;
27436;SDS011;14886;51.586;6.722;2023-09-19T15:29:17;2.6;;;0.9;;
27436;SDS011;14886;51.586;6.722;2023-09-19T15:34:19;2.2;;;0.8;;
27436;SDS011;14886;51.586;6.722;2023-09-19T15:39:20;3.5;;;0.9;;
27436;SDS011;14886;51.586;6.722;2023-09-19T15:44:21;3.3;;;0.9;;
27436;SDS011;14886;51.586;6.722;2023-09-19T15:49:22;2.6;;;1.2;;
27436;SDS011;14886;51.586;6.722;2023-09-19T15:54:24;5.1;;;0.7;;
27436;SDS011;14886;51.586;6.722;2023-09-19T15:59:25;5.0;;;1.3;;
27436;SDS011;14886;51.586;6.722;2023-09-19T16:04:26;3.1;;;0.8;;
27436;SDS011;14886;51.586;6.722;2023-09-19T16:09:27;2.6;;;0.6;;
27436;SDS011;14886;51.586;6.722;2023-09-19T16:14:29;2.0;;;0.7;;
27436;SDS011;14886;51.586;6.722;2023-09-19T16:19:30;3.4;;;0.8;;
27436;SDS011;14886;51.586;6.722;2023-09-19T16:24:31;2.0;;;0.9;;
27436;SDS011;14886;51.586;6.722;2023-09-19T16:29:32;4.1;;;0.9;;
27436;SDS011;14886;51.586;6.722;2023-09-19T16:34:33;2.6;;;0.7;;
27436;SDS011;14886;51.586;6.722;2023-09-19T16:39:35;2.5;;;1.0;;
27436;SDS011;14886;51.586;6.722;2023-09-19T16:44:36;3.4;;;0.8;;
27436;SDS011;14886;51.586;6.722;2023-09-19T16:49:37;3.6;;;0.9;;
27436;SDS011;14886;51.586;6.722;2023-09-19T16:54:38;3.1;;;1.0;;
27436;SDS011;14886;51.586;6.722;2023-09-19T17:04:41;3.8;;;0.9;;
27436;SDS011;14886;51.586;6.722;2023-09-19T17:09:42;4.0;;;1.0;;
27436;SDS011;14886;51.586;6.722;2023-09-19T17:14:43;4.7;;;1.0;;
27436;SDS011;14886;51.586;6.722;2023-09-19T17:19:44;2.1;;;0.8;;
27436;SDS011;14886;51.586;6.722;2023-09-19T17:24:46;2.4;;;0.8;;
27436;SDS011;14886;51.586;6.722;2023-09-19T17:29:47;3.1;;;1.0;;
27436;SDS011;14886;51.586;6.722;2023-09-19T17:34:48;3.8;;;1.0;;
27436;SDS011;14886;51.586;6.722;2023-09-19T17:39:49;5.3;;;1.4;;
27436;SDS011;14886;51.586;6.722;2023-09-19T17:44:51;5.0;;;1.2;;
27436;SDS011;14886;51.586;6.722;2023-09-19T17:49:52;2.4;;;1.0;;
27436;SDS011;14886;51.586;6.722;2023-09-19T17:54:53;5.4;;;1.0;;
27436;SDS011;14886;51.586;6.722;2023-09-19T17:59:54;7.3;;;1.2;;
27436;SDS011;14886;51.586;6.722;2023-09-19T18:04:56;3.6;;;1.2;;
27436;SDS011;14886;51.586;6.722;2023-09-19T18:09:57;4.9;;;1.1;;
27436;SDS011;14886;51.586;6.722;2023-09-19T18:14:58;5.0;;;0.9;;
27436;SDS011;14886;51.586;6.722;2023-09-19T18:19:59;3.7;;;1.2;;
27436;SDS011;14886;51.586;6.722;2023-09-19T18:25:01;3.9;;;0.9;;
27436;SDS011;14886;51.586;6.722;2023-09-19T18:30:02;3.0;;;0.8;;
27436;SDS011;14886;51.586;6.722;2023-09-19T18:35:04;2.2;;;1.1;;
27436;SDS011;14886;51.586;6.722;2023-09-19T18:40:05;3.0;;;0.7;;
27436;SDS011;14886;51.586;6.722;2023-09-19T18:45:06;2.7;;;0.9;;
27436;SDS011;14886;51.586;6.722;2023-09-19T18:50:07;3.3;;;1.2;;
27436;SDS011;14886;51.586;6.722;2023-09-19T18:55:08;2.3;;;1.3;;
27436;SDS011;14886;51.586;6.722;2023-09-19T19:00:10;4.8;;;1.3;;
27436;SDS011;14886;51.586;6.722;2023-09-19T19:05:11;4.3;;;0.8;;
27436;SDS011;14886;51.586;6.722;2023-09-19T19:10:12;5.3;;;1.2;;
27436;SDS011;14886;51.586;6.722;2023-09-19T19:15:13;5.1;;;1.3;;
27436;SDS011;14886;51.586;6.722;2023-09-19T19:20:14;4.3;;;1.5;;
27436;SDS011;14886;51.586;6.722;2023-09-19T19:25:16;3.5;;;0.9;;
27436;SDS011;14886;51.586;6.722;2023-09-19T19:30:17;3.7;;;1.1;;
27436;SDS011;14886;51.586;6.722;2023-09-19T19:35:18;3.6;;;1.2;;
27436;SDS011;14886;51.586;6.722;2023-09-19T19:40:19;6.0;;;1.0;;
27436;SDS011;14886;51.586;6.722;2023-09-19T19:45:21;3.7;;;1.2;;
27436;SDS011;14886;51.586;6.722;2023-09-19T19:50:22;3.6;;;1.1;;
27436;SDS011;14886;51.586;6.722;2023-09-19T19:55:23;4.2;;;1.2;;
27436;SDS011;14886;51.586;6.722;2023-09-19T20:00:24;3.5;;;1.0;;
27436;SDS011;14886;51.586;6.722;2023-09-19T20:05:29;5.1;;;1.3;;
27436;SDS011;14886;51.586;6.722;2023-09-19T20:10:27;2.4;;;1.1;;
27436;SDS011;14886;51.586;6.722;2023-09-19T20:15:30;4.2;;;1.5;;
27436;SDS011;14886;51.586;6.722;2023-09-19T20:20:29;3.0;;;1.0;;
27436;SDS011;14886;51.586;6.722;2023-09-19T20:25:31;3.6;;;1.0;;
27436;SDS011;14886;51.586;6.722;2023-09-19T20:30:32;4.3;;;1.5;;
27436;SDS011;14886;51.586;6.722;2023-09-19T20:35:34;4.8;;;1.2;;
27436;SDS011;14886;51.586;6.722;2023-09-19T20:40:34;6.2;;;1.1;;
27436;SDS011;14886;51.586;6.722;2023-09-19T20:45:35;3.4;;;0.8;;
27436;SDS011;14886;51.586;6.722;2023-09-19T20:50:37;4.9;;;1.0;;
27436;SDS011;14886;51.586;6.722;2023-09-19T20:55:38;4.6;;;1.2;;
27436;SDS011;14886;51.586;6.722;2023-09-19T21:00:39;5.5;;;1.3;;
27436;SDS011;14886;51.586;6.722;2023-09-19T21:05:40;4.6;;;1.1;;
27436;SDS011;14886;51.586;6.722;2023-09-19T21:10:42;3.5;;;1.0;;
27436;SDS011;14886;51.586;6.722;2023-09-19T21:15:43;5.5;;;1.4;;
27436;SDS011;14886;51.586;6.722;2023-09-19T21:20:44;3.8;;;1.4;;
27436;SDS011;14886;51.586;6.722;2023-09-19T21:25:53;3.9;;;1.7;;
27436;SDS011;14886;51.586;6.722;2023-09-19T21:30:55;8.0;;;1.5;;
27436;SDS011;14886;51.586;6.722;2023-09-19T21:35:48;5.7;;;1.3;;
27436;SDS011;14886;51.586;6.722;2023-09-19T21:40:49;8.2;;;1.6;;
27436;SDS011;14886;51.586;6.722;2023-09-19T21:45:50;4.9;;;1.5;;
27436;SDS011;14886;51.586;6.722;2023-09-19T21:50:52;5.5;;;2.0;;
27436;SDS011;14886;51.586;6.722;2023-09-19T21:55:57;7.3;;;1.7;;
27436;SDS011;14886;51.586;6.722;2023-09-19T22:00:54;5.1;;;1.4;;
27436;SDS011;14886;51.586;6.722;2023-09-19T22:06:00;5.2;;;1.4;;
27436;SDS011;14886;51.586;6.722;2023-09-19T22:10:56;5.6;;;1.7;;
27436;SDS011;14886;51.586;6.722;2023-09-19T22:15:58;3.9;;;1.3;;
27436;SDS011;14886;51.586;6.722;2023-09-19T22:20:59;4.6;;;1.7;;
27436;SDS011;14886;51.586;6.722;2023-09-19T22:26:00;5.5;;;1.3;;
27436;SDS011;14886;51.586;6.722;2023-09-19T22:31:01;3.8;;;1.4;;
27436;SDS011;14886;51.586;6.722;2023-09-19T22:41:04;4.2;;;1.6;;
27436;SDS011;14886;51.586;6.722;2023-09-19T22:46:05;4.7;;;1.4;;
27436;SDS011;14886;51.586;6.722;2023-09-19T22:51:06;3.9;;;1.3;;
27436;SDS011;14886;51.586;6.722;2023-09-19T22:56:08;3.8;;;1.7;;
27436;SDS011;14886;51.586;6.722;2023-09-19T23:01:09;3.1;;;1.6;;
27436;SDS011;14886;51.586;6.722;2023-09-19T23:06:10;4.9;;;1.9;;
27436;SDS011;14886;51.586;6.722;2023-09-19T23:11:11;5.2;;;1.5;;
27436;SDS011;14886;51.586;6.722;2023-09-19T23:16:13;2.8;;;1.0;;
27436;SDS011;14886;51.586;6.722;2023-09-19T23:21:14;6.2;;;1.8;;
27436;SDS011;14886;51.586;6.722;2023-09-19T23:26:15;5.3;;;1.4;;
27436;SDS011;14886;51.586;6.722;2023-09-19T23:31:17;4.6;;;2.0;;
27436;SDS011;14886;51.586;6.722;2023-09-19T23:36:18;6.1;;;1.4;;
27436;SDS011;14886;51.586;6.722;2023-09-19T23:41:19;4.2;;;1.2;;
27436;SDS011;14886;51.586;6.722;2023-09-19T23:46:20;4.1;;;1.4;;
27436;SDS011;14886;51.586;6.722;2023-09-19T23:51:21;7.0;;;1.6;;
27436;SDS011;14886;51.586;6.722;2023-09-19T23:56:23;5.0;;;1.5;;
